Terminal Aerodrome Forecast
Issued by NWS

Home | Current Version | Previous Version | Graphics & Text | Print | Product List | Glossary On
Versions: 1 2 3 4 5 6 7 8 9 10 11 12 13 14 15 16 17 18 19 20 21 22
811
FTUS43 KMPX 131739
TAFRWF
TAF
KRWF 131739Z 1318/1418 15010G16KT P6SM BKN090
     FM132100 16008KT P6SM -SHRA BKN050 BKN080
      TEMPO 1321/1401 4SM TSRA SCT012 OVC035CB
     FM140100 12008KT P6SM -SHRA VCTS SCT012 BKN040CB
     FM140400 12008KT 6SM BR VCSH SCT010 OVC020
     FM140600 10006KT 3SM BR OVC008
     FM141600 07006KT P6SM OVC012=

USA.gov is the U.S. government's official web portal to all federal, state and local government web resources and services.